Time;durP1;ratioP1;P1;durP2;ratioP2;P2;SDS_P1;SDS_P2;PMS_P1;PMS_P2;Temp;Humidity;BMP_temperature;BMP_pressure;BME280_temperature;BME280_humidity;BME280_pressure;Samples;Min_cycle;Max_cycle;Signal;HPM_P1;HPM_P2
2021/11/15 06:44:27;;;;;;;6.63;3.08;;;;;;;;;;10490131;28;20684;-83
2021/11/15 06:49:27;;;;;;;4.45;2.83;;;;;;;;;;10446745;28;20029;-84
2021/11/15 06:54:28;;;;;;;3.92;2.90;;;;;;;;;;10438423;28;20079;-84
2021/11/15 06:59:28;;;;;;;13.20;3.20;;;;;;;;;;10413122;28;20034;-90
2021/11/15 07:04:28;;;;;;;7.47;3.60;;;;;;;;;;10435264;28;20550;-88
2021/11/15 07:09:29;;;;;;;8.82;3.55;;;;;;;;;;10449413;28;20813;-86
2021/11/15 07:14:29;;;;;;;10.95;3.00;;;;;;;;;;10449705;28;20080;-86
2021/11/15 07:19:30;;;;;;;10.98;3.15;;;;;;;;;;10449236;28;20419;-88
2021/11/15 07:24:30;;;;;;;14.32;3.65;;;;;;;;;;10448333;28;20200;-87
2021/11/15 07:29:31;;;;;;;5.40;2.80;;;;;;;;;;10450129;28;20041;-87
2021/11/15 07:34:31;;;;;;;9.77;3.08;;;;;;;;;;10437283;28;20384;-87
2021/11/15 07:39:32;;;;;;;15.17;3.13;;;;;;;;;;10419178;28;20034;-87
2021/11/15 07:44:32;;;;;;;5.57;3.07;;;;;;;;;;10392715;28;20954;-87
2021/11/15 07:49:32;;;;;;;5.40;2.58;;;;;;;;;;10379336;28;20467;-87
2021/11/15 07:54:34;;;;;;;10.88;2.80;;;;;;;;;;10396349;28;20029;-89
2021/11/15 07:59:35;;;;;;;4.90;2.70;;;;;;;;;;10394359;28;20164;-85
2021/11/15 08:04:36;;;;;;;11.93;2.97;;;;;;;;;;10382889;28;20493;-85
2021/11/15 08:09:37;;;;;;;3.40;2.43;;;;;;;;;;10378761;28;20065;-85
2021/11/15 08:14:40;;;;;;;10.60;3.00;;;;;;;;;;10409952;28;20526;-84
2021/11/15 08:19:40;;;;;;;15.02;2.90;;;;;;;;;;10397794;28;20083;-85
2021/11/15 08:25:01;;;;;;;7.57;2.75;;;;;;;;;;10419972;28;20415;-85
2021/11/15 08:30:03;;;;;;;4.97;2.63;;;;;;;;;;10417896;28;20040;-85
2021/11/15 08:35:03;;;;;;;4.13;2.75;;;;;;;;;;10435965;28;20033;-84
2021/11/15 08:40:04;;;;;;;9.38;3.22;;;;;;;;;;10429556;28;20049;-86
2021/11/15 08:45:05;;;;;;;9.13;3.20;;;;;;;;;;10437655;28;20033;-88
2021/11/15 08:50:06;;;;;;;8.93;3.42;;;;;;;;;;10431710;28;20342;-88
2021/11/15 08:55:07;;;;;;;5.85;3.53;;;;;;;;;;10426642;28;20033;-88
2021/11/15 09:00:08;;;;;;;5.82;2.90;;;;;;;;;;10428317;28;20032;-84
2021/11/15 09:05:08;;;;;;;4.93;3.53;;;;;;;;;;10433958;28;20084;-84
2021/11/15 09:10:10;;;;;;;6.53;2.97;;;;;;;;;;10429849;28;20075;-82
2021/11/15 09:15:15;;;;;;;6.20;2.85;;;;;;;;;;10428779;28;20047;-84
2021/11/15 09:20:16;;;;;;;4.13;2.95;;;;;;;;;;10436560;28;20040;-83
2021/11/15 09:25:16;;;;;;;8.50;3.50;;;;;;;;;;10435026;28;20378;-84
2021/11/15 09:30:17;;;;;;;5.40;3.20;;;;;;;;;;10428884;28;20475;-84
2021/11/15 09:35:18;;;;;;;7.78;3.10;;;;;;;;;;10410722;28;20112;-84
2021/11/15 09:40:18;;;;;;;6.53;3.30;;;;;;;;;;10415799;28;20045;-83
2021/11/15 09:45:19;;;;;;;5.03;2.72;;;;;;;;;;10415558;28;20099;-84
2021/11/15 09:50:20;;;;;;;9.98;3.40;;;;;;;;;;10417392;28;20410;-90
2021/11/15 09:55:21;;;;;;;17.40;3.30;;;;;;;;;;10420317;28;20159;-86
2021/11/15 10:00:23;;;;;;;7.70;3.83;;;;;;;;;;10416225;28;20026;-86
2021/11/15 10:05:23;;;;;;;9.23;3.45;;;;;;;;;;10416424;28;20029;-87
2021/11/15 10:10:44;;;;;;;7.80;3.78;;;;;;;;;;10415885;28;20022;-88
2021/11/15 10:15:46;;;;;;;5.40;3.25;;;;;;;;;;10415774;28;20034;-86
2021/11/15 10:20:49;;;;;;;12.15;2.88;;;;;;;;;;10417262;28;20376;-88
2021/11/15 10:25:50;;;;;;;5.22;2.70;;;;;;;;;;10417113;28;20168;-87
2021/11/15 10:30:50;;;;;;;4.28;3.10;;;;;;;;;;10415031;28;20063;-88
2021/11/15 10:35:52;;;;;;;6.57;3.20;;;;;;;;;;10376034;28;20116;-90
2021/11/15 10:40:53;;;;;;;4.22;3.45;;;;;;;;;;10398590;28;20172;-90
2021/11/15 10:45:54;;;;;;;4.72;3.67;;;;;;;;;;10374981;28;20041;-90
2021/11/15 10:50:56;;;;;;;7.43;3.60;;;;;;;;;;10386895;28;20378;-92
2021/11/15 10:56:36;;;;;;;4.78;3.22;;;;;;;;;;10377180;28;20044;-88
2021/11/15 11:01:39;;;;;;;6.63;3.33;;;;;;;;;;10373924;28;20041;-88
2021/11/15 11:06:55;;;;;;;9.77;3.97;;;;;;;;;;10387271;28;20034;-89
2021/11/15 11:12:23;;;;;;;5.13;3.58;;;;;;;;;;10399002;28;20037;-87
2021/11/15 11:17:24;;;;;;;4.95;3.30;;;;;;;;;;10400037;28;20037;-89
2021/11/15 11:27:43;;;;;;;;;;;;;;;;;;10386894;28;20029;-92
2021/11/15 11:32:46;;;;;;;6.32;3.67;;;;;;;;;;10419968;28;19917;-90
2021/11/15 11:37:46;;;;;;;4.22;3.35;;;;;;;;;;10430817;28;20388;-89
2021/11/15 11:42:46;;;;;;;5.75;3.50;;;;;;;;;;10435250;28;20060;-94
2021/11/15 11:47:47;;;;;;;9.83;4.20;;;;;;;;;;10422213;28;20033;-90
2021/11/15 11:53:08;;;;;;;6.80;4.00;;;;;;;;;;10422378;28;20116;-93
2021/11/15 11:58:32;;;;;;;7.90;3.63;;;;;;;;;;10412691;28;20109;-95
2021/11/15 12:03:33;;;;;;;7.90;3.75;;;;;;;;;;10410581;28;20036;-93
2021/11/15 12:09:00;;;;;;;4.55;3.65;;;;;;;;;;10419572;28;20021;-93
2021/11/15 12:14:01;;;;;;;6.25;3.42;;;;;;;;;;10431880;28;20205;-90
2021/11/15 12:19:01;;;;;;;6.88;3.97;;;;;;;;;;10418018;28;20028;-90
2021/11/15 12:24:10;;;;;;;6.40;4.23;;;;;;;;;;10419949;28;20034;-91
2021/11/15 12:29:26;;;;;;;6.63;3.65;;;;;;;;;;10420084;23;20054;-89
2021/11/15 12:34:32;;;;;;;6.80;4.65;;;;;;;;;;10368245;28;20038;-87
2021/11/15 12:39:42;;;;;;;7.30;4.18;;;;;;;;;;10376810;28;20033;-88
2021/11/15 12:44:42;;;;;;;7.20;4.03;;;;;;;;;;10359231;28;20357;-88
2021/11/15 12:49:54;;;;;;;8.23;4.27;;;;;;;;;;10375615;28;20046;-88
2021/11/15 12:54:55;;;;;;;7.57;4.75;;;;;;;;;;10376670;28;20440;-87
2021/11/15 12:59:59;;;;;;;13.63;4.55;;;;;;;;;;10374690;28;20038;-88
2021/11/15 13:05:00;;;;;;;5.88;4.18;;;;;;;;;;10374646;28;20104;-87
2021/11/15 13:10:01;;;;;;;6.38;4.45;;;;;;;;;;10373370;28;20026;-88
2021/11/15 13:15:04;;;;;;;6.77;4.60;;;;;;;;;;10375784;28;20079;-87
2021/11/15 13:20:06;;;;;;;5.78;4.05;;;;;;;;;;10374662;28;20543;-87
2021/11/15 13:25:08;;;;;;;8.30;4.72;;;;;;;;;;10372709;28;20034;-87
2021/11/15 13:30:14;;;;;;;9.30;4.35;;;;;;;;;;10351329;28;20528;-87
2021/11/15 13:35:15;;;;;;;8.30;4.70;;;;;;;;;;10331701;28;20497;-88
2021/11/15 13:40:15;;;;;;;8.07;5.15;;;;;;;;;;10362177;28;20038;-87
2021/11/15 13:45:16;;;;;;;7.30;5.00;;;;;;;;;;10338951;28;20037;-86
2021/11/15 13:50:16;;;;;;;12.60;4.65;;;;;;;;;;10334432;28;20117;-90
2021/11/15 13:55:17;;;;;;;9.63;5.40;;;;;;;;;;10333479;28;20038;-89
2021/11/15 14:00:17;;;;;;;5.78;3.97;;;;;;;;;;10336734;28;20038;-89
2021/11/15 14:05:20;;;;;;;5.32;3.78;;;;;;;;;;10361887;28;20028;-89
2021/11/15 14:10:20;;;;;;;7.53;4.07;;;;;;;;;;10373261;28;20121;-89
2021/11/15 14:15:21;;;;;;;10.83;3.83;;;;;;;;;;10359374;28;20145;-89
2021/11/15 14:20:22;;;;;;;11.57;5.13;;;;;;;;;;10371369;28;20026;-89
2021/11/15 14:25:22;;;;;;;9.15;4.53;;;;;;;;;;10372864;28;20986;-89
2021/11/15 14:30:23;;;;;;;9.90;4.70;;;;;;;;;;10373266;28;20469;-88
2021/11/15 14:35:23;;;;;;;6.43;3.75;;;;;;;;;;10372844;28;20030;-88
2021/11/15 14:40:24;;;;;;;11.37;4.63;;;;;;;;;;10386997;28;20029;-89
2021/11/15 14:45:24;;;;;;;9.23;4.53;;;;;;;;;;10380412;28;20447;-86
2021/11/15 14:50:25;;;;;;;10.40;4.57;;;;;;;;;;10372589;28;20165;-88
2021/11/15 14:55:26;;;;;;;9.90;4.45;;;;;;;;;;10381386;28;20113;-87
2021/11/15 15:00:27;;;;;;;10.15;5.25;;;;;;;;;;10381042;28;20037;-85
2021/11/15 15:05:27;;;;;;;7.65;4.53;;;;;;;;;;10381322;28;20029;-85
2021/11/15 15:10:29;;;;;;;9.32;4.05;;;;;;;;;;10381029;28;20022;-88
2021/11/15 15:15:30;;;;;;;13.98;4.35;;;;;;;;;;10380921;28;20137;-94
2021/11/15 15:20:35;;;;;;;7.18;4.70;;;;;;;;;;10363449;28;20385;-92
2021/11/15 15:25:36;;;;;;;7.15;4.85;;;;;;;;;;10380002;28;20025;-90
2021/11/15 15:30:36;;;;;;;7.25;5.15;;;;;;;;;;10328369;28;20043;-94
2021/11/15 15:35:37;;;;;;;10.77;5.28;;;;;;;;;;10299362;28;20387;-93
2021/11/15 15:40:46;;;;;;;7.65;4.85;;;;;;;;;;10300036;28;20039;-92
2021/11/15 15:45:49;;;;;;;7.82;5.65;;;;;;;;;;10299903;28;20033;-93
2021/11/15 15:50:52;;;;;;;6.38;5.20;;;;;;;;;;10312609;28;20462;-91
2021/11/15 15:55:53;;;;;;;10.43;5.53;;;;;;;;;;10298206;28;20486;-92
2021/11/15 16:00:59;;;;;;;7.68;4.50;;;;;;;;;;10300649;28;20447;-88
2021/11/15 16:06:14;;;;;;;7.20;5.05;;;;;;;;;;10298391;28;20045;-94
2021/11/15 16:11:37;;;;;;;7.75;5.20;;;;;;;;;;10298659;28;20027;-90
2021/11/15 16:17:07;;;;;;;8.90;5.20;;;;;;;;;;10298533;28;20106;-89
2021/11/15 16:22:00;;;;;;;9.32;4.95;;;;;;;;;;10309700;28;20035;-89
2021/11/15 16:27:01;;;;;;;6.93;4.95;;;;;;;;;;10303854;28;20421;-89
2021/11/15 16:32:03;;;;;;;7.22;5.40;;;;;;;;;;10302616;28;20366;-89
2021/11/15 16:37:03;;;;;;;11.85;5.18;;;;;;;;;;10302012;28;20023;-92
2021/11/15 16:42:04;;;;;;;16.80;5.22;;;;;;;;;;10305043;28;20026;-91
2021/11/15 16:47:05;;;;;;;6.82;4.80;;;;;;;;;;10310420;28;20030;-90
2021/11/15 16:52:05;;;;;;;9.65;5.07;;;;;;;;;;10317411;28;20029;-87
2021/11/15 16:57:09;;;;;;;6.57;4.55;;;;;;;;;;10311899;28;20022;-89
2021/11/15 17:02:13;;;;;;;9.77;5.10;;;;;;;;;;10305574;28;20077;-89
2021/11/15 17:07:18;;;;;;;9.25;5.05;;;;;;;;;;10296815;28;20034;-89
2021/11/15 17:12:19;;;;;;;12.82;5.45;;;;;;;;;;10300573;28;20034;-89
2021/11/15 17:17:26;;;;;;;15.63;5.15;;;;;;;;;;10303438;28;20038;-87
2021/11/15 17:22:27;;;;;;;9.32;5.13;;;;;;;;;;10296290;28;20089;-88
2021/11/15 17:27:33;;;;;;;6.50;4.93;;;;;;;;;;10317550;28;20508;-88
2021/11/15 17:32:34;;;;;;;7.15;5.53;;;;;;;;;;10350135;28;20486;-89
2021/11/15 17:37:36;;;;;;;6.93;4.93;;;;;;;;;;10351073;28;20030;-93
2021/11/15 17:42:37;;;;;;;6.63;4.68;;;;;;;;;;10359427;28;20029;-90
2021/11/15 17:47:40;;;;;;;7.75;5.30;;;;;;;;;;10354197;28;20033;-92
2021/11/15 17:52:45;;;;;;;7.47;5.10;;;;;;;;;;10348357;28;20044;-91
2021/11/15 17:57:47;;;;;;;6.45;4.40;;;;;;;;;;10340874;28;20402;-92
2021/11/15 18:02:47;;;;;;;6.80;4.75;;;;;;;;;;10344865;28;20044;-89
2021/11/15 18:07:48;;;;;;;11.32;4.60;;;;;;;;;;10353170;28;20037;-89
2021/11/15 18:12:48;;;;;;;10.93;5.80;;;;;;;;;;10355149;28;20022;-90
2021/11/15 18:17:54;;;;;;;8.00;5.33;;;;;;;;;;10342262;28;20033;-89
2021/11/15 18:22:54;;;;;;;7.93;5.18;;;;;;;;;;10338964;28;20484;-90
2021/11/15 18:27:56;;;;;;;7.15;5.30;;;;;;;;;;10364833;28;20050;-92
2021/11/15 18:32:56;;;;;;;7.90;5.30;;;;;;;;;;10363496;28;20054;-90
2021/11/15 18:37:57;;;;;;;8.90;5.80;;;;;;;;;;10372694;28;20476;-90
2021/11/15 18:43:01;;;;;;;12.40;5.88;;;;;;;;;;10365364;28;20463;-89
2021/11/15 18:48:04;;;;;;;9.07;5.85;;;;;;;;;;10362667;28;20030;-91
2021/11/15 18:53:05;;;;;;;12.05;5.97;;;;;;;;;;10362798;28;20113;-91
2021/11/15 18:58:05;;;;;;;10.27;5.78;;;;;;;;;;10351393;28;20164;-92
2021/11/15 19:03:06;;;;;;;7.28;5.05;;;;;;;;;;10381511;28;20045;-90
2021/11/15 19:08:11;;;;;;;7.50;5.60;;;;;;;;;;10370777;28;20120;-91
2021/11/15 19:13:27;;;;;;;9.70;6.05;;;;;;;;;;10363751;28;20034;-88
2021/11/15 19:18:28;;;;;;;6.65;5.15;;;;;;;;;;10363814;28;20072;-88
2021/11/15 19:23:29;;;;;;;7.78;5.45;;;;;;;;;;10345384;28;20045;-87
2021/11/15 19:28:29;;;;;;;11.07;6.10;;;;;;;;;;10359526;28;20066;-89
2021/11/15 19:33:30;;;;;;;11.83;6.73;;;;;;;;;;10366168;28;20524;-89
2021/11/15 19:38:31;;;;;;;7.63;5.55;;;;;;;;;;10345510;28;20376;-91
2021/11/15 19:43:32;;;;;;;9.43;5.97;;;;;;;;;;10374207;28;20121;-91
2021/11/15 19:48:33;;;;;;;12.55;6.10;;;;;;;;;;10368667;28;20456;-90
2021/11/15 19:53:34;;;;;;;11.30;5.40;;;;;;;;;;10375459;28;20026;-91
2021/11/15 19:58:36;;;;;;;8.07;5.65;;;;;;;;;;10364654;28;20026;-91
2021/11/15 20:03:36;;;;;;;8.27;6.10;;;;;;;;;;10377090;28;20377;-89
2021/11/15 20:08:37;;;;;;;8.27;5.70;;;;;;;;;;10376422;28;20123;-89
2021/11/15 20:13:38;;;;;;;7.17;5.83;;;;;;;;;;10380769;28;20026;-88
2021/11/15 20:18:40;;;;;;;8.02;6.22;;;;;;;;;;10375810;28;20502;-88
2021/11/15 20:23:41;;;;;;;8.35;5.63;;;;;;;;;;10365907;28;20100;-86
2021/11/15 20:28:41;;;;;;;10.13;6.22;;;;;;;;;;10372357;28;20537;-88
2021/11/15 20:33:42;;;;;;;9.30;5.68;;;;;;;;;;10369699;28;20026;-89
2021/11/15 20:38:44;;;;;;;8.00;5.50;;;;;;;;;;10368854;28;20030;-89
2021/11/15 20:43:44;;;;;;;9.45;6.40;;;;;;;;;;10374557;28;20030;-89
2021/11/15 20:48:45;;;;;;;10.02;5.60;;;;;;;;;;10373683;28;20042;-89
2021/11/15 20:53:45;;;;;;;8.87;5.57;;;;;;;;;;10369989;28;20462;-94
2021/11/15 20:58:46;;;;;;;12.57;5.87;;;;;;;;;;10370865;28;20147;-93
2021/11/15 21:03:47;;;;;;;8.68;5.97;;;;;;;;;;10352170;28;20807;-94
2021/11/15 21:08:48;;;;;;;7.50;5.60;;;;;;;;;;10342724;28;20042;-94
2021/11/15 21:13:51;;;;;;;9.43;5.80;;;;;;;;;;10362777;28;20038;-91
2021/11/15 21:18:58;;;;;;;11.25;6.00;;;;;;;;;;10359841;28;20125;-93
2021/11/15 21:24:00;;;;;;;11.10;6.10;;;;;;;;;;10368600;28;20128;-93
2021/11/15 21:29:00;;;;;;;12.35;5.40;;;;;;;;;;10343631;28;20042;-91
2021/11/15 21:34:01;;;;;;;9.80;5.47;;;;;;;;;;10322534;28;20363;-92
2021/11/15 21:39:05;;;;;;;14.30;6.28;;;;;;;;;;10315918;28;20077;-88
2021/11/15 21:44:05;;;;;;;9.10;5.63;;;;;;;;;;10318665;28;20082;-88
2021/11/15 21:49:07;;;;;;;11.00;6.13;;;;;;;;;;10325670;28;20086;-90
2021/11/15 21:54:07;;;;;;;9.80;5.38;;;;;;;;;;10318966;28;20042;-91
2021/11/15 21:59:08;;;;;;;9.00;5.72;;;;;;;;;;10306289;28;20034;-90
2021/11/15 22:04:10;;;;;;;8.13;5.00;;;;;;;;;;10318069;28;20529;-88
2021/11/15 22:09:14;;;;;;;6.03;4.78;;;;;;;;;;10332485;28;20034;-90
2021/11/15 22:14:15;;;;;;;10.07;5.53;;;;;;;;;;10321503;28;20441;-88
2021/11/15 22:19:15;;;;;;;7.27;5.27;;;;;;;;;;10306459;28;20054;-90
2021/11/15 22:24:16;;;;;;;13.05;5.50;;;;;;;;;;10304467;28;20126;-88
2021/11/15 22:29:17;;;;;;;8.52;5.55;;;;;;;;;;10350550;28;20050;-88
2021/11/15 22:34:18;;;;;;;9.73;5.35;;;;;;;;;;10371177;28;20458;-87
2021/11/15 22:39:19;;;;;;;16.97;5.43;;;;;;;;;;10368002;28;20477;-89
2021/11/15 22:44:20;;;;;;;11.30;5.65;;;;;;;;;;10364197;28;20459;-90
2021/11/15 22:49:20;;;;;;;10.47;5.53;;;;;;;;;;10371391;28;20034;-88
2021/11/15 22:54:21;;;;;;;8.15;5.10;;;;;;;;;;10371370;28;20455;-93
2021/11/15 22:59:21;;;;;;;10.77;5.60;;;;;;;;;;10355050;28;20044;-91
2021/11/15 23:04:21;;;;;;;10.67;4.77;;;;;;;;;;10357842;28;20502;-89
2021/11/15 23:09:23;;;;;;;10.60;5.70;;;;;;;;;;10353755;28;21016;-89
2021/11/15 23:14:23;;;;;;;8.10;4.93;;;;;;;;;;10375595;28;20041;-91
2021/11/15 23:19:24;;;;;;;9.20;5.10;;;;;;;;;;10371705;28;20038;-90
2021/11/15 23:24:24;;;;;;;7.10;5.07;;;;;;;;;;10369235;28;20482;-90
2021/11/15 23:29:25;;;;;;;6.13;4.72;;;;;;;;;;10354481;28;20500;-89
2021/11/15 23:34:25;;;;;;;11.13;5.43;;;;;;;;;;10334442;28;20121;-89
2021/11/15 23:39:26;;;;;;;7.53;4.95;;;;;;;;;;10344828;28;20038;-92
2021/11/15 23:44:26;;;;;;;8.60;5.55;;;;;;;;;;10350874;28;20034;-88
2021/11/15 23:49:26;;;;;;;7.37;5.10;;;;;;;;;;10334368;28;20037;-89
2021/11/15 23:54:27;;;;;;;9.73;5.33;;;;;;;;;;10335925;28;20945;-89
2021/11/15 23:59:27;;;;;;;8.00;5.10;;;;;;;;;;10338832;28;20505;-89
